TimeCST,TemperatureF,Dew PointF,Humidity,Sea Level PressureIn,VisibilityMPH,Wind Direction,Wind SpeedMPH,Gust SpeedMPH,PrecipitationIn,Events,Conditions,WindDirDegrees,DateUTC
12:15 AM,30.2,28.4,93,30.24,5.0,Calm,Calm,-,N/A,,Clear,0,2013-01-08 06:15:00
12:35 AM,30.2,28.4,93,30.22,5.0,NE,4.6,-,N/A,,Clear,50,2013-01-08 06:35:00
12:55 AM,30.2,28.4,93,30.23,4.0,NE,3.5,-,N/A,,Clear,40,2013-01-08 06:55:00
1:15 AM,30.2,28.4,93,30.22,5.0,Calm,Calm,-,N/A,,Clear,0,2013-01-08 07:15:00
1:55 AM,30.2,28.4,93,30.23,5.0,Calm,Calm,-,N/A,,Clear,0,2013-01-08 07:55:00
2:15 AM,30.2,30.2,100,30.22,4.0,Calm,Calm,-,N/A,,Clear,0,2013-01-08 08:15:00
2:55 AM,28.4,26.6,93,30.21,2.5,Calm,Calm,-,N/A,,Clear,0,2013-01-08 08:55:00
3:15 AM,28.4,28.4,100,30.21,2.5,Calm,Calm,-,N/A,,Clear,0,2013-01-08 09:15:00
3:35 AM,30.2,26.6,86,30.20,5.0,Calm,Calm,-,N/A,,Clear,0,2013-01-08 09:35:00
3:55 AM,30.2,28.4,93,30.20,4.0,Calm,Calm,-,N/A,,Clear,0,2013-01-08 09:55:00
4:15 AM,26.6,24.8,93,30.20,3.0,NNW,5.8,-,N/A,,Clear,340,2013-01-08 10:15:00
4:35 AM,28.4,26.6,93,30.20,3.0,North,4.6,-,N/A,,Clear,350,2013-01-08 10:35:00
4:55 AM,28.4,28.4,100,30.21,4.0,Calm,Calm,-,N/A,,Clear,0,2013-01-08 10:55:00
5:35 AM,30.2,28.4,93,30.22,3.0,NNW,3.5,-,N/A,,Clear,340,2013-01-08 11:35:00
5:55 AM,28.4,28.4,100,30.23,3.0,NNW,3.5,-,N/A,,Clear,340,2013-01-08 11:55:00
6:15 AM,28.4,26.6,93,30.23,4.0,NNW,4.6,-,N/A,,Clear,330,2013-01-08 12:15:00
6:35 AM,28.4,26.6,93,30.23,4.0,Calm,Calm,-,N/A,,Clear,0,2013-01-08 12:35:00
6:55 AM,28.4,26.6,93,30.25,4.0,North,3.5,-,N/A,,Clear,360,2013-01-08 12:55:00
7:35 AM,28.4,26.6,93,30.26,4.0,Calm,Calm,-,N/A,,Clear,0,2013-01-08 13:35:00
7:55 AM,28.4,28.4,100,30.26,5.0,Calm,Calm,-,N/A,,Clear,0,2013-01-08 13:55:00
8:55 AM,33.8,30.2,87,30.26,5.0,NNE,3.5,-,N/A,,Clear,30,2013-01-08 14:55:00
9:15 AM,33.8,30.2,87,30.27,4.0,NNE,3.5,-,N/A,,Clear,30,2013-01-08 15:15:00
9:35 AM,35.6,33.8,93,30.27,5.0,Calm,Calm,-,N/A,,Partly Cloudy,0,2013-01-08 15:35:00
9:55 AM,37.4,33.8,87,30.26,7.0,East,3.5,-,N/A,,Partly Cloudy,80,2013-01-08 15:55:00
10:15 AM,39.2,35.6,87,30.27,8.0,Calm,Calm,-,N/A,,Clear,0,2013-01-08 16:15:00
10:35 AM,39.2,33.8,81,30.26,10.0,SE,3.5,-,N/A,,Partly Cloudy,130,2013-01-08 16:35:00
10:55 AM,42.8,35.6,76,30.25,10.0,SSE,8.1,-,N/A,,Partly Cloudy,150,2013-01-08 16:55:00
11:15 AM,44.6,35.6,71,30.25,10.0,South,5.8,-,N/A,,Clear,170,2013-01-08 17:15:00
11:35 AM,46.4,35.6,66,30.24,10.0,South,4.6,-,N/A,,Clear,170,2013-01-08 17:35:00
11:55 AM,46.4,37.4,71,30.23,10.0,South,8.1,-,N/A,,Clear,180,2013-01-08 17:55:00
12:35 PM,48.2,39.2,71,30.20,10.0,SSE,6.9,-,N/A,,Clear,160,2013-01-08 18:35:00
12:55 PM,48.2,37.4,66,30.19,10.0,SSE,8.1,-,N/A,,Clear,160,2013-01-08 18:55:00
1:55 PM,51.8,41.0,67,30.18,10.0,SE,9.2,-,N/A,,Clear,140,2013-01-08 19:55:00
2:15 PM,51.8,39.2,62,30.18,10.0,South,8.1,-,N/A,,Clear,170,2013-01-08 20:15:00
2:55 PM,51.8,41.0,67,30.16,10.0,South,6.9,-,N/A,,Clear,180,2013-01-08 20:55:00
3:15 PM,51.8,41.0,67,30.17,10.0,South,9.2,-,N/A,,Clear,180,2013-01-08 21:15:00
3:55 PM,51.8,42.8,71,30.19,10.0,South,5.8,-,N/A,,Mostly Cloudy,190,2013-01-08 21:55:00
4:15 PM,51.8,42.8,71,30.20,10.0,SSW,5.8,-,N/A,,Overcast,200,2013-01-08 22:15:00
4:55 PM,50.0,42.8,76,30.20,10.0,South,3.5,-,N/A,,Overcast,190,2013-01-08 22:55:00
5:15 PM,48.2,44.6,87,30.19,10.0,Calm,Calm,-,N/A,,Overcast,0,2013-01-08 23:15:00
5:35 PM,48.2,44.6,87,30.18,10.0,ESE,4.6,-,N/A,,Overcast,110,2013-01-08 23:35:00
5:55 PM,48.2,44.6,87,30.18,10.0,SE,4.6,-,N/A,,Overcast,130,2013-01-08 23:55:00
6:15 PM,48.2,44.6,87,30.18,10.0,SE,5.8,-,N/A,,Overcast,130,2013-01-09 00:15:00
6:55 PM,48.2,42.8,82,30.18,10.0,ESE,6.9,-,N/A,,Overcast,120,2013-01-09 00:55:00
7:15 PM,48.2,42.8,82,30.19,10.0,ESE,3.5,-,N/A,,Scattered Clouds,110,2013-01-09 01:15:00
7:35 PM,48.2,41.0,76,30.18,10.0,ESE,5.8,-,N/A,,Clear,110,2013-01-09 01:35:00
7:55 PM,46.4,41.0,81,30.18,10.0,East,3.5,-,N/A,,Clear,90,2013-01-09 01:55:00
8:35 PM,46.4,41.0,81,30.19,9.0,NE,4.6,-,N/A,,Partly Cloudy,50,2013-01-09 02:35:00
8:55 PM,44.6,41.0,87,30.19,10.0,East,5.8,-,N/A,,Mostly Cloudy,80,2013-01-09 02:55:00
9:15 PM,44.6,41.0,87,30.19,9.0,NE,3.5,-,N/A,,Mostly Cloudy,40,2013-01-09 03:15:00
9:35 PM,44.6,41.0,87,30.19,10.0,NE,4.6,-,N/A,,Mostly Cloudy,50,2013-01-09 03:35:00
10:15 PM,44.6,42.8,93,30.21,10.0,NNW,5.8,-,N/A,,Mostly Cloudy,340,2013-01-09 04:15:00
10:35 PM,44.6,42.8,93,30.22,10.0,North,5.8,-,N/A,,Overcast,350,2013-01-09 04:35:00
11:15 PM,44.6,42.8,93,30.23,8.0,NE,5.8,-,N/A,,Overcast,50,2013-01-09 05:15:00
11:55 PM,46.4,42.8,87,30.23,1.0,East,5.8,-,N/A,,Overcast,80,2013-01-09 05:55:00